Terminal Aerodrome Forecast
Issued by NWS Cleveland, OH

Home | Current Version | Previous Version | Text Only | Print | Product List | Glossary On
Versions: 1 2 3 4 5 6 7 8 9 10 11 12 13 14 15 16 17 18 19 20 21 22 23 24 25
000
FTUS41 KCLE 252100 AAB
TAFCAK
TAF AMD
KCAK 252119Z 2521/2618 06012KT 2SM -SN BR OVC012
      TEMPO 2521/2524 1SM -SN BR OVC008
     FM260000 06008KT 3/4SM -SN BR OVC006
     FM260800 04012KT 1 1/2SM -SN BR OVC006
     FM261700 02009KT P6SM OVC015=

USA.gov is the U.S. government's official web portal to all federal, state and local government web resources and services.